Time;durP1;ratioP1;P1;durP2;ratioP2;P2;SDS_P1;SDS_P2;PMS_P1;PMS_P2;Temp;Humidity;BMP_temperature;BMP_pressure;BME280_temperature;BME280_humidity;BME280_pressure;Samples;Min_cycle;Max_cycle;Signal;HPM_P1;HPM_P2
2023/08/23 00:00:24;;;;;;;;;;;17.70;99.90;;;;;;5007586;28;20027;-43
2023/08/23 00:02:51;;;;;;;;;;;17.70;99.90;;;;;;5014459;28;19965;-43
2023/08/23 00:05:17;;;;;;;;;;;17.70;99.90;;;;;;5012719;28;19925;-43
2023/08/23 00:07:44;;;;;;;;;;;17.70;99.90;;;;;;4996477;28;20046;-43
2023/08/23 00:10:12;;;;;;;;;;;17.60;99.90;;;;;;4998348;28;20259;-43
2023/08/23 00:12:39;;;;;;;;;;;17.60;99.90;;;;;;5001759;28;19983;-43
2023/08/23 00:15:06;;;;;;;;;;;17.60;99.90;;;;;;4995876;28;20285;-43
2023/08/23 00:17:32;;;;;;;;;;;17.50;99.90;;;;;;5026360;28;19936;-43
2023/08/23 00:19:59;;;;;;;;;;;17.50;99.90;;;;;;5022878;28;20274;-43
2023/08/23 00:22:26;;;;;;;;;;;17.50;99.90;;;;;;5014910;28;19984;-44
2023/08/23 00:24:53;;;;;;;;;;;17.50;99.90;;;;;;5020058;28;20288;-43
2023/08/23 00:27:21;;;;;;;;;;;17.40;99.90;;;;;;5000266;28;19955;-43
2023/08/23 00:29:47;;;;;;;;;;;17.40;99.90;;;;;;5028570;28;20392;-43
2023/08/23 00:32:14;;;;;;;;;;;17.40;99.90;;;;;;5021011;28;19924;-43
2023/08/23 00:34:41;;;;;;;;;;;17.30;99.90;;;;;;5002209;28;19925;-43
2023/08/23 00:37:07;;;;;;;;;;;17.30;99.90;;;;;;5014451;28;19963;-43
2023/08/23 00:39:34;;;;;;;;;;;17.30;99.90;;;;;;5023528;28;19956;-44
2023/08/23 00:42:01;;;;;;;;;;;17.20;99.90;;;;;;4995569;28;19969;-43
2023/08/23 00:44:29;;;;;;;;;;;17.20;99.90;;;;;;5015111;28;20351;-42
2023/08/23 00:46:55;;;;;;;;;;;17.20;99.90;;;;;;4995815;28;19943;-44
2023/08/23 00:49:22;;;;;;;;;;;17.10;99.90;;;;;;5003717;28;19926;-43
2023/08/23 00:51:49;;;;;;;;;;;17.10;99.90;;;;;;5013256;28;19925;-44
2023/08/23 00:54:15;;;;;;;;;;;17.10;99.90;;;;;;4999514;28;19936;-43
2023/08/23 00:56:42;;;;;;;;;;;17.00;99.90;;;;;;5031359;28;19936;-43
2023/08/23 00:59:09;;;;;;;;;;;17.00;99.90;;;;;;5018911;28;20009;-43
2023/08/23 01:01:37;;;;;;;;;;;16.90;99.90;;;;;;5016898;28;19963;-43
2023/08/23 01:04:04;;;;;;;;;;;17.00;99.90;;;;;;5004331;28;19925;-43
2023/08/23 01:06:33;;;;;;;;;;;16.90;99.90;;;;;;5019731;28;20299;-43
2023/08/23 01:09:03;;;;;;;;;;;16.90;99.90;;;;;;4999942;28;19956;-43
2023/08/23 01:11:32;;;;;;;;;;;16.80;99.90;;;;;;5032410;28;20013;-44
2023/08/23 01:14:00;;;;;;;;;;;16.80;99.90;;;;;;5016231;28;20332;-43
2023/08/23 01:16:27;;;;;;;;;;;16.80;99.90;;;;;;5019417;28;19936;-43
2023/08/23 01:18:55;;;;;;;;;;;16.80;99.90;;;;;;5013118;28;19951;-43
2023/08/23 01:21:24;;;;;;;;;;;16.70;99.90;;;;;;5021109;28;20488;-43
2023/08/23 01:23:52;;;;;;;;;;;16.80;99.90;;;;;;5012522;28;19969;-44
2023/08/23 01:26:18;;;;;;;;;;;16.70;99.90;;;;;;5007715;28;19963;-44
2023/08/23 01:28:47;;;;;;;;;;;16.70;99.90;;;;;;5007220;28;19932;-43
2023/08/23 01:31:14;;;;;;;;;;;16.70;99.90;;;;;;5025831;28;20266;-43
2023/08/23 01:33:41;;;;;;;;;;;16.70;99.90;;;;;;5013362;28;19940;-43
2023/08/23 01:36:08;;;;;;;;;;;16.70;99.90;;;;;;5032368;28;19964;-43
2023/08/23 01:38:35;;;;;;;;;;;16.60;99.90;;;;;;5015028;28;20420;-44
2023/08/23 01:41:03;;;;;;;;;;;16.60;99.90;;;;;;5000528;28;19956;-44
2023/08/23 01:43:29;;;;;;;;;;;16.60;99.90;;;;;;5004158;28;19925;-43
2023/08/23 01:46:01;;;;;;;;;;;16.60;99.90;;;;;;5026564;28;19926;-43
2023/08/23 01:48:28;;;;;;;;;;;16.50;99.90;;;;;;4995530;28;19929;-44
2023/08/23 01:50:54;;;;;;;;;;;16.50;99.90;;;;;;5012605;28;20308;-44
2023/08/23 01:53:21;;;;;;;;;;;16.50;99.90;;;;;;5020895;28;20380;-44
2023/08/23 01:55:48;;;;;;;;;;;16.40;99.90;;;;;;5012687;28;19930;-43
2023/08/23 01:58:16;;;;;;;;;;;16.40;99.90;;;;;;5012732;28;19925;-43
2023/08/23 02:00:46;;;;;;;;;;;16.40;99.90;;;;;;4995224;28;19947;-44
2023/08/23 02:03:13;;;;;;;;;;;16.40;99.90;;;;;;4995100;28;20402;-43
2023/08/23 02:05:39;;;;;;;;;;;16.40;99.90;;;;;;5024144;28;20315;-44
2023/08/23 02:08:06;;;;;;;;;;;16.40;99.90;;;;;;5020942;28;20453;-44
2023/08/23 02:10:33;;;;;;;;;;;16.40;99.90;;;;;;5016656;28;19955;-43
2023/08/23 02:12:59;;;;;;;;;;;16.30;99.90;;;;;;5000682;28;19948;-43
2023/08/23 02:15:27;;;;;;;;;;;16.30;99.90;;;;;;5020391;28;20332;-43
2023/08/23 02:17:54;;;;;;;;;;;16.30;99.90;;;;;;4998955;28;19926;-43
2023/08/23 02:20:21;;;;;;;;;;;16.20;99.90;;;;;;5017739;28;19964;-44
2023/08/23 02:22:47;;;;;;;;;;;16.20;99.90;;;;;;5003764;28;19959;-43
2023/08/23 02:25:14;;;;;;;;;;;16.20;99.90;;;;;;5025587;28;19960;-43
2023/08/23 02:27:41;;;;;;;;;;;16.10;99.90;;;;;;5022115;28;19929;-43
2023/08/23 02:30:08;;;;;;;;;;;16.00;99.90;;;;;;5031562;28;19925;-43
2023/08/23 02:32:36;;;;;;;;;;;16.10;99.90;;;;;;5033770;28;19982;-43
2023/08/23 02:35:03;;;;;;;;;;;16.00;99.90;;;;;;5034889;28;20442;-43
2023/08/23 02:37:29;;;;;;;;;;;16.00;99.90;;;;;;5016062;28;20022;-43
2023/08/23 02:39:56;;;;;;;;;;;16.00;99.90;;;;;;5015946;28;19947;-44
2023/08/23 02:42:23;;;;;;;;;;;15.90;99.90;;;;;;5004261;28;19924;-44
2023/08/23 02:44:49;;;;;;;;;;;15.90;99.90;;;;;;5030299;28;19932;-43
2023/08/23 02:47:16;;;;;;;;;;;15.90;99.90;;;;;;5015189;28;19925;-43
2023/08/23 02:49:44;;;;;;;;;;;15.90;99.90;;;;;;5034309;28;19960;-43
2023/08/23 02:52:11;;;;;;;;;;;15.90;99.90;;;;;;5032191;28;19932;-44
2023/08/23 02:54:37;;;;;;;;;;;15.90;99.90;;;;;;5005865;28;19990;-43
2023/08/23 02:57:04;;;;;;;;;;;15.90;99.90;;;;;;5003019;28;19938;-42
2023/08/23 02:59:31;;;;;;;;;;;15.80;99.90;;;;;;5000038;28;20014;-43
2023/08/23 03:01:58;;;;;;;;;;;15.80;99.90;;;;;;4997730;28;19964;-43
2023/08/23 03:04:24;;;;;;;;;;;15.80;99.90;;;;;;4998775;28;19926;-43
2023/08/23 03:06:52;;;;;;;;;;;15.90;99.90;;;;;;5007166;28;20375;-43
2023/08/23 03:09:19;;;;;;;;;;;15.80;99.90;;;;;;5011756;28;19987;-43
2023/08/23 03:11:46;;;;;;;;;;;15.80;99.90;;;;;;5015449;28;19947;-42
2023/08/23 03:14:12;;;;;;;;;;;15.80;99.90;;;;;;5013834;28;19949;-43
2023/08/23 03:16:39;;;;;;;;;;;15.80;99.90;;;;;;5010430;28;20010;-43
2023/08/23 03:19:06;;;;;;;;;;;15.80;99.90;;;;;;5004900;28;19942;-43
2023/08/23 03:21:32;;;;;;;;;;;15.80;99.90;;;;;;5014066;28;19980;-43
2023/08/23 03:24:00;;;;;;;;;;;15.80;99.90;;;;;;5014369;28;19925;-44
2023/08/23 03:26:27;;;;;;;;;;;15.80;99.90;;;;;;5030452;28;19997;-43
2023/08/23 03:28:54;;;;;;;;;;;15.80;99.90;;;;;;5031004;28;19975;-43
2023/08/23 03:31:20;;;;;;;;;;;15.80;99.90;;;;;;5020820;28;19964;-43
2023/08/23 03:33:47;;;;;;;;;;;15.70;99.90;;;;;;5029119;28;19929;-43
2023/08/23 03:36:14;;;;;;;;;;;15.70;99.90;;;;;;5005864;28;19936;-42
2023/08/23 03:38:40;;;;;;;;;;;15.70;99.90;;;;;;4995501;28;19947;-42
2023/08/23 03:41:13;;;;;;;;;;;15.70;99.90;;;;;;5009655;28;19953;-43
2023/08/23 03:43:40;;;;;;;;;;;15.60;99.90;;;;;;5029559;28;19955;-43
2023/08/23 03:46:07;;;;;;;;;;;15.70;99.90;;;;;;5019481;28;19963;-42
2023/08/23 03:48:33;;;;;;;;;;;15.70;99.90;;;;;;5013875;28;19937;-43
2023/08/23 03:51:00;;;;;;;;;;;15.60;99.90;;;;;;5017461;28;19926;-43
2023/08/23 03:53:27;;;;;;;;;;;15.60;99.90;;;;;;5027778;28;19969;-43
2023/08/23 03:55:53;;;;;;;;;;;15.60;99.90;;;;;;5031758;28;19925;-43
2023/08/23 03:58:21;;;;;;;;;;;15.60;99.90;;;;;;5021897;28;19929;-42
2023/08/23 04:00:49;;;;;;;;;;;15.60;99.90;;;;;;5052669;28;19968;-44
2023/08/23 04:03:16;;;;;;;;;;;15.50;99.90;;;;;;5006308;28;19925;-44
2023/08/23 04:05:42;;;;;;;;;;;15.50;99.90;;;;;;5013698;28;20344;-44
2023/08/23 04:08:10;;;;;;;;;;;15.50;99.90;;;;;;5013578;28;19984;-44
2023/08/23 04:10:37;;;;;;;;;;;15.50;99.90;;;;;;4996135;28;19929;-44
2023/08/23 04:13:03;;;;;;;;;;;15.40;99.90;;;;;;4995814;28;19946;-43
2023/08/23 04:15:31;;;;;;;;;;;15.40;99.90;;;;;;4995897;28;20402;-44
2023/08/23 04:17:58;;;;;;;;;;;15.30;99.90;;;;;;5010870;28;19982;-43
2023/08/23 04:20:25;;;;;;;;;;;15.30;99.90;;;;;;5013885;28;20453;-43
2023/08/23 04:22:51;;;;;;;;;;;15.30;99.90;;;;;;5032288;28;19961;-44
2023/08/23 04:25:18;;;;;;;;;;;15.30;99.90;;;;;;5032835;28;19982;-44
2023/08/23 04:27:45;;;;;;;;;;;15.30;99.90;;;;;;5032702;28;19971;-43
2023/08/23 04:30:12;;;;;;;;;;;15.30;99.90;;;;;;5014392;28;20014;-43
2023/08/23 04:32:40;;;;;;;;;;;15.30;99.90;;;;;;5031091;28;19939;-43
2023/08/23 04:35:07;;;;;;;;;;;15.30;99.90;;;;;;5004354;28;19932;-44
2023/08/23 04:37:34;;;;;;;;;;;15.20;99.90;;;;;;5027922;28;19937;-43
2023/08/23 04:40:00;;;;;;;;;;;15.20;99.90;;;;;;4995555;28;20450;-43
2023/08/23 04:42:28;;;;;;;;;;;15.20;99.90;;;;;;5014099;28;19929;-43
2023/08/23 04:44:55;;;;;;;;;;;15.30;99.90;;;;;;4996465;28;20435;-43
2023/08/23 04:47:21;;;;;;;;;;;15.30;99.90;;;;;;5002291;28;19955;-43
2023/08/23 04:49:49;;;;;;;;;;;15.30;99.90;;;;;;5013969;28;19962;-44
2023/08/23 04:52:16;;;;;;;;;;;15.30;99.90;;;;;;5012788;28;19952;-43
2023/08/23 04:54:43;;;;;;;;;;;15.30;99.90;;;;;;5013471;28;19929;-44
2023/08/23 04:57:09;;;;;;;;;;;15.30;99.90;;;;;;5025296;28;19987;-43
2023/08/23 04:59:36;;;;;;;;;;;15.40;99.90;;;;;;5005045;28;20023;-43
2023/08/23 05:02:03;;;;;;;;;;;15.40;99.90;;;;;;5020701;28;20377;-44
2023/08/23 05:04:30;;;;;;;;;;;15.40;99.90;;;;;;5012810;28;19963;-44
2023/08/23 05:06:58;;;;;;;;;;;15.40;99.90;;;;;;5003351;28;19939;-44
2023/08/23 05:09:26;;;;;;;;;;;15.40;99.90;;;;;;5025034;28;19936;-43
2023/08/23 05:11:53;;;;;;;;;;;15.50;99.90;;;;;;5015565;28;19942;-43
2023/08/23 05:14:19;;;;;;;;;;;15.50;99.90;;;;;;5016434;28;20081;-44
2023/08/23 05:16:46;;;;;;;;;;;15.60;99.90;;;;;;5004392;28;19983;-44
2023/08/23 05:19:12;;;;;;;;;;;15.50;99.90;;;;;;5000177;28;19961;-44
2023/08/23 05:21:39;;;;;;;;;;;15.60;99.90;;;;;;5012530;28;19925;-43
2023/08/23 05:24:07;;;;;;;;;;;15.60;99.90;;;;;;5020144;28;19976;-44
2023/08/23 05:26:34;;;;;;;;;;;15.70;99.90;;;;;;5022148;28;19936;-43
2023/08/23 05:29:01;;;;;;;;;;;15.70;99.90;;;;;;5012532;28;19925;-43
2023/08/23 05:31:28;;;;;;;;;;;15.70;99.90;;;;;;5031171;28;19971;-43
2023/08/23 05:33:54;;;;;;;;;;;15.70;99.90;;;;;;4994758;28;20012;-43
2023/08/23 05:36:21;;;;;;;;;;;15.70;99.90;;;;;;5024026;28;20281;-43
2023/08/23 05:38:50;;;;;;;;;;;15.80;99.90;;;;;;5020885;28;19925;-44
2023/08/23 05:41:18;;;;;;;;;;;15.80;99.90;;;;;;5012121;28;19929;-44
2023/08/23 05:43:44;;;;;;;;;;;15.80;99.90;;;;;;5009665;28;20419;-43
2023/08/23 05:46:11;;;;;;;;;;;15.80;99.90;;;;;;5027371;28;19959;-43
2023/08/23 05:48:38;;;;;;;;;;;15.80;99.90;;;;;;5022948;28;19937;-43
2023/08/23 05:51:05;;;;;;;;;;;15.80;99.90;;;;;;5015993;28;20009;-43
2023/08/23 05:53:32;;;;;;;;;;;15.80;99.90;;;;;;5024287;28;20023;-44
2023/08/23 05:55:58;;;;;;;;;;;15.80;99.90;;;;;;5011008;28;19960;-44
2023/08/23 05:58:26;;;;;;;;;;;15.80;99.90;;;;;;5008237;28;19932;-43
2023/08/23 06:00:55;;;;;;;;;;;15.80;99.90;;;;;;5030356;28;19925;-42
2023/08/23 06:03:21;;;;;;;;;;;15.80;99.90;;;;;;5025386;28;20380;-42
2023/08/23 06:05:49;;;;;;;;;;;15.80;99.90;;;;;;5024795;28;19985;-41
2023/08/23 06:08:16;;;;;;;;;;;15.90;99.90;;;;;;5030581;28;19940;-42
2023/08/23 06:10:42;;;;;;;;;;;15.90;99.90;;;;;;5030478;28;20395;-43
2023/08/23 06:13:09;;;;;;;;;;;16.00;99.90;;;;;;5013880;28;20411;-42
2023/08/23 06:15:37;;;;;;;;;;;16.10;99.90;;;;;;5007942;28;19932;-43
2023/08/23 06:18:04;;;;;;;;;;;16.20;99.90;;;;;;5004713;28;20388;-43
2023/08/23 06:20:31;;;;;;;;;;;16.30;99.90;;;;;;5018200;28;19929;-44
2023/08/23 06:22:57;;;;;;;;;;;16.40;99.90;;;;;;4999563;28;19984;-43
2023/08/23 06:25:24;;;;;;;;;;;16.60;99.90;;;;;;5027447;28;19935;-44
2023/08/23 06:27:51;;;;;;;;;;;16.60;99.90;;;;;;5030381;28;20036;-41
2023/08/23 06:30:17;;;;;;;;;;;16.80;99.90;;;;;;5020141;28;19951;-43
2023/08/23 06:32:48;;;;;;;;;;;16.90;99.90;;;;;;5015545;28;19961;-43
2023/08/23 06:35:16;;;;;;;;;;;17.10;99.90;;;;;;5020321;28;20345;-43
2023/08/23 06:37:42;;;;;;;;;;;17.30;99.90;;;;;;5006145;28;19926;-44
2023/08/23 06:40:11;;;;;;;;;;;17.40;99.90;;;;;;5007110;28;19933;-42
2023/08/23 06:42:37;;;;;;;;;;;17.50;99.90;;;;;;5023653;28;19964;-42
2023/08/23 06:45:04;;;;;;;;;;;17.60;99.90;;;;;;5031937;28;20038;-43
2023/08/23 06:47:31;;;;;;;;;;;17.60;99.90;;;;;;5018237;28;19936;-41
2023/08/23 06:49:59;;;;;;;;;;;17.70;99.90;;;;;;5001557;28;19947;-43
2023/08/23 06:52:26;;;;;;;;;;;17.90;99.90;;;;;;5023081;28;19968;-43
2023/08/23 06:54:53;;;;;;;;;;;17.90;99.90;;;;;;5028252;28;19925;-43
2023/08/23 06:57:21;;;;;;;;;;;18.00;99.90;;;;;;5010757;28;20001;-43
2023/08/23 06:59:48;;;;;;;;;;;18.10;99.90;;;;;;5012965;28;19972;-44
2023/08/23 07:02:14;;;;;;;;;;;18.20;99.90;;;;;;5029458;28;19944;-43
2023/08/23 07:04:41;;;;;;;;;;;18.30;99.90;;;;;;5027684;28;19965;-43
2023/08/23 07:07:09;;;;;;;;;;;18.40;99.90;;;;;;5006468;28;19935;-43
2023/08/23 07:09:36;;;;;;;;;;;18.50;99.90;;;;;;5023036;28;20445;-44
2023/08/23 07:12:02;;;;;;;;;;;18.70;99.90;;;;;;5024747;28;19991;-43
2023/08/23 07:14:29;;;;;;;;;;;18.80;99.90;;;;;;5022140;28;20017;-43
2023/08/23 07:16:56;;;;;;;;;;;18.80;99.90;;;;;;5023271;28;20392;-44
2023/08/23 07:19:22;;;;;;;;;;;18.90;99.90;;;;;;5014796;28;19943;-43
2023/08/23 07:21:49;;;;;;;;;;;18.90;99.90;;;;;;5008254;28;19971;-43
2023/08/23 07:24:17;;;;;;;;;;;18.90;99.90;;;;;;5029026;28;20014;-44
2023/08/23 07:26:44;;;;;;;;;;;19.00;99.90;;;;;;5016612;28;19977;-42
2023/08/23 07:29:15;;;;;;;;;;;19.00;99.90;;;;;;5026299;28;20274;-44
2023/08/23 07:31:42;;;;;;;;;;;19.10;99.90;;;;;;5022506;28;19972;-43
2023/08/23 07:34:09;;;;;;;;;;;19.10;99.90;;;;;;5017352;28;19926;-43
2023/08/23 07:36:36;;;;;;;;;;;19.20;99.90;;;;;;5029067;28;19929;-43
2023/08/23 07:39:03;;;;;;;;;;;19.40;99.90;;;;;;5031936;28;19960;-44
2023/08/23 07:41:31;;;;;;;;;;;19.60;99.90;;;;;;5004380;28;20040;-44
2023/08/23 07:43:57;;;;;;;;;;;19.80;99.90;;;;;;5019269;28;19959;-43
2023/08/23 07:46:25;;;;;;;;;;;20.00;99.90;;;;;;5007950;28;20227;-44
2023/08/23 07:48:51;;;;;;;;;;;20.20;99.90;;;;;;5030742;28;20361;-42
2023/08/23 07:51:18;;;;;;;;;;;20.40;99.90;;;;;;5017964;28;19956;-44
2023/08/23 07:53:45;;;;;;;;;;;20.60;99.90;;;;;;5011889;28;20026;-44
2023/08/23 07:56:11;;;;;;;;;;;20.70;99.90;;;;;;5016793;28;19929;-43
2023/08/23 07:58:41;;;;;;;;;;;20.90;99.90;;;;;;5029600;28;19946;-44
2023/08/23 08:01:07;;;;;;;;;;;21.00;99.90;;;;;;5027801;28;19937;-44
2023/08/23 08:03:34;;;;;;;;;;;21.20;99.90;;;;;;5014357;28;19963;-43
2023/08/23 08:06:01;;;;;;;;;;;21.30;99.90;;;;;;5011409;28;20639;-44
2023/08/23 08:08:27;;;;;;;;;;;21.50;99.90;;;;;;5000524;28;19926;-42
2023/08/23 08:10:54;;;;;;;;;;;21.60;99.90;;;;;;5009082;28;19968;-44
2023/08/23 08:13:21;;;;;;;;;;;21.70;99.90;;;;;;5028848;28;19965;-44
2023/08/23 08:15:49;;;;;;;;;;;21.80;99.90;;;;;;5017704;28;20469;-44
2023/08/23 08:18:15;;;;;;;;;;;22.00;99.90;;;;;;5026081;28;19959;-42
2023/08/23 08:20:42;;;;;;;;;;;22.20;99.90;;;;;;5018518;28;19941;-43
2023/08/23 08:23:09;;;;;;;;;;;22.30;99.90;;;;;;5018566;28;19925;-44
2023/08/23 08:25:36;;;;;;;;;;;22.40;99.90;;;;;;5024948;28;20332;-44
2023/08/23 08:28:03;;;;;;;;;;;22.50;99.90;;;;;;5025150;28;19925;-43
2023/08/23 08:30:29;;;;;;;;;;;22.60;99.90;;;;;;5012977;28;20297;-43
2023/08/23 08:32:57;;;;;;;;;;;22.70;99.90;;;;;;5007625;28;19965;-43
2023/08/23 08:35:24;;;;;;;;;;;22.70;99.90;;;;;;5012406;28;19936;-44
2023/08/23 08:37:51;;;;;;;;;;;22.80;99.90;;;;;;5011517;28;19940;-42
2023/08/23 08:40:18;;;;;;;;;;;22.90;99.90;;;;;;5013627;28;19970;-42
2023/08/23 08:42:45;;;;;;;;;;;23.00;99.90;;;;;;5029531;28;19941;-44
2023/08/23 08:45:11;;;;;;;;;;;23.20;99.90;;;;;;5026118;28;19967;-43
2023/08/23 08:47:38;;;;;;;;;;;23.30;99.90;;;;;;5011971;28;19967;-43
2023/08/23 08:50:06;;;;;;;;;;;23.50;99.90;;;;;;5027546;28;19983;-43
2023/08/23 08:52:33;;;;;;;;;;;23.60;99.90;;;;;;5010950;28;19957;-43
2023/08/23 08:55:00;;;;;;;;;;;23.80;99.90;;;;;;5029860;28;19979;-44
2023/08/23 08:57:27;;;;;;;;;;;23.90;99.90;;;;;;5015998;28;19987;-43
2023/08/23 08:59:54;;;;;;;;;;;24.00;99.90;;;;;;5012427;28;19959;-43
2023/08/23 09:02:20;;;;;;;;;;;24.20;99.90;;;;;;5012625;28;20361;-43
2023/08/23 09:04:47;;;;;;;;;;;24.20;99.90;;;;;;5011689;28;19926;-43
2023/08/23 09:07:16;;;;;;;;;;;24.40;99.90;;;;;;5011542;28;20056;-43
2023/08/23 09:09:42;;;;;;;;;;;24.50;99.90;;;;;;5007905;28;19952;-43
2023/08/23 09:12:09;;;;;;;;;;;24.60;99.90;;;;;;5022755;28;19997;-44
2023/08/23 09:14:36;;;;;;;;;;;24.80;99.90;;;;;;5024321;28;19951;-44
2023/08/23 09:17:03;;;;;;;;;;;24.90;99.90;;;;;;5028718;28;19936;-44
2023/08/23 09:19:29;;;;;;;;;;;25.10;99.90;;;;;;5016930;28;19936;-44
2023/08/23 09:21:56;;;;;;;;;;;25.20;99.90;;;;;;5005780;28;21397;-43
2023/08/23 09:24:24;;;;;;;;;;;25.20;99.90;;;;;;5004582;28;20157;-44
2023/08/23 09:26:51;;;;;;;;;;;25.20;99.90;;;;;;5031146;28;19975;-44
2023/08/23 09:29:18;;;;;;;;;;;25.30;99.90;;;;;;5016566;28;19964;-44
2023/08/23 09:31:44;;;;;;;;;;;25.40;99.90;;;;;;4994163;28;19980;-44
2023/08/23 09:34:11;;;;;;;;;;;25.50;99.90;;;;;;5016380;28;19925;-44
2023/08/23 09:36:40;;;;;;;;;;;25.70;99.90;;;;;;5029343;28;20694;-44
2023/08/23 09:39:08;;;;;;;;;;;25.70;99.90;;;;;;5010595;28;19937;-44
2023/08/23 09:41:37;;;;;;;;;;;25.90;99.90;;;;;;4993610;28;20022;-44
2023/08/23 09:44:04;;;;;;;;;;;26.00;99.90;;;;;;5022906;28;20009;-43
2023/08/23 09:46:30;;;;;;;;;;;26.10;99.90;;;;;;5025097;28;19926;-43
2023/08/23 09:48:57;;;;;;;;;;;26.20;99.90;;;;;;5022388;28;20029;-44
2023/08/23 09:51:25;;;;;;;;;;;26.30;99.90;;;;;;5012314;28;19998;-41
2023/08/23 09:53:53;;;;;;;;;;;26.40;99.90;;;;;;5014160;28;20368;-43
2023/08/23 09:56:20;;;;;;;;;;;26.50;99.90;;;;;;5012947;28;19974;-43
2023/08/23 09:58:48;;;;;;;;;;;26.50;99.90;;;;;;5019901;28;19961;-41
2023/08/23 10:01:15;;;;;;;;;;;26.60;99.80;;;;;;5025505;28;19972;-42
2023/08/23 10:03:42;;;;;;;;;;;26.60;99.50;;;;;;5024149;28;19982;-43
2023/08/23 10:06:08;;;;;;;;;;;26.70;98.90;;;;;;4992460;28;19948;-43
2023/08/23 10:08:35;;;;;;;;;;;26.60;97.90;;;;;;5044966;28;20110;-43
2023/08/23 10:11:02;;;;;;;;;;;26.50;99.30;;;;;;5018675;28;19925;-43
2023/08/23 10:13:28;;;;;;;;;;;26.50;99.80;;;;;;5021077;28;20317;-44
2023/08/23 10:15:56;;;;;;;;;;;26.60;99.90;;;;;;5006880;28;19979;-43
2023/08/23 10:18:23;;;;;;;;;;;26.80;99.00;;;;;;5017830;28;19932;-44
2023/08/23 10:20:51;;;;;;;;;;;26.90;99.00;;;;;;4997189;28;20004;-44
2023/08/23 10:23:18;;;;;;;;;;;27.00;99.20;;;;;;5009920;28;19936;-44
2023/08/23 10:25:45;;;;;;;;;;;27.10;98.70;;;;;;5001633;28;19959;-43
2023/08/23 10:28:12;;;;;;;;;;;27.10;96.80;;;;;;5024168;28;19930;-43
2023/08/23 10:30:40;;;;;;;;;;;27.10;98.50;;;;;;5015183;28;19933;-42
2023/08/23 10:33:11;;;;;;;;;;;27.10;98.60;;;;;;5026733;28;19938;-43
2023/08/23 10:35:38;;;;;;;;;;;27.00;98.60;;;;;;5018362;28;19929;-43
2023/08/23 10:38:05;;;;;;;;;;;27.00;97.90;;;;;;5005489;28;19933;-43
2023/08/23 10:40:32;;;;;;;;;;;27.00;98.50;;;;;;5021425;28;19929;-43
2023/08/23 10:42:59;;;;;;;;;;;27.00;98.60;;;;;;5005152;28;19925;-43
2023/08/23 10:45:25;;;;;;;;;;;27.00;97.70;;;;;;5015545;28;19933;-43
2023/08/23 10:47:52;;;;;;;;;;;27.00;98.00;;;;;;5014557;28;19987;-44
2023/08/23 10:50:20;;;;;;;;;;;26.80;97.70;;;;;;5026836;28;19964;-43
2023/08/23 10:52:47;;;;;;;;;;;26.70;98.20;;;;;;5008777;28;20105;-43
2023/08/23 10:55:14;;;;;;;;;;;26.70;98.50;;;;;;5026590;28;20351;-44
2023/08/23 10:57:40;;;;;;;;;;;26.60;98.10;;;;;;5016296;28;19926;-43
2023/08/23 11:00:08;;;;;;;;;;;26.70;98.40;;;;;;5000623;28;19959;-43
2023/08/23 11:02:34;;;;;;;;;;;26.80;98.20;;;;;;4996808;28;19925;-43
2023/08/23 11:05:01;;;;;;;;;;;27.00;98.00;;;;;;5018284;28;20078;-44
2023/08/23 11:07:29;;;;;;;;;;;27.10;97.50;;;;;;5026996;28;19925;-44
2023/08/23 11:09:56;;;;;;;;;;;27.30;97.10;;;;;;5016694;28;20387;-43
2023/08/23 11:12:23;;;;;;;;;;;27.40;97.60;;;;;;5008983;28;19959;-44
2023/08/23 11:14:49;;;;;;;;;;;27.60;97.20;;;;;;5033844;28;20017;-43
2023/08/23 11:17:16;;;;;;;;;;;27.70;97.00;;;;;;5004120;28;19967;-43
2023/08/23 11:19:43;;;;;;;;;;;27.70;97.00;;;;;;4997721;28;19925;-44
2023/08/23 11:22:10;;;;;;;;;;;27.80;96.50;;;;;;5001498;28;20050;-44
2023/08/23 11:24:39;;;;;;;;;;;27.80;96.50;;;;;;5016808;28;20508;-44
2023/08/23 11:27:11;;;;;;;;;;;27.80;96.20;;;;;;5032658;28;20012;-44
2023/08/23 11:29:38;;;;;;;;;;;28.00;97.10;;;;;;5034128;28;19951;-44
2023/08/23 11:32:05;;;;;;;;;;;28.00;95.60;;;;;;5033200;28;19929;-43
2023/08/23 11:34:32;;;;;;;;;;;28.00;96.50;;;;;;5014920;28;19968;-44
2023/08/23 11:36:58;;;;;;;;;;;28.00;96.50;;;;;;5014407;28;19968;-44
2023/08/23 11:39:25;;;;;;;;;;;28.00;95.90;;;;;;4997268;28;19956;-44
2023/08/23 11:41:53;;;;;;;;;;;28.00;96.10;;;;;;5021491;28;19929;-44
2023/08/23 11:44:20;;;;;;;;;;;28.20;95.40;;;;;;5028500;28;19952;-44
2023/08/23 11:46:49;;;;;;;;;;;28.30;94.20;;;;;;4997002;28;19942;-44
2023/08/23 11:49:18;;;;;;;;;;;28.30;95.40;;;;;;5016181;28;19940;-44
2023/08/23 11:51:45;;;;;;;;;;;28.40;94.90;;;;;;5033873;28;19983;-44
2023/08/23 11:54:11;;;;;;;;;;;28.50;95.30;;;;;;5032639;28;20421;-44
2023/08/23 11:56:39;;;;;;;;;;;28.60;95.20;;;;;;5033872;28;20309;-44
2023/08/23 11:59:08;;;;;;;;;;;28.80;94.40;;;;;;5007119;28;19939;-43
2023/08/23 12:01:35;;;;;;;;;;;28.70;94.50;;;;;;5033611;28;20018;-44
2023/08/23 12:04:02;;;;;;;;;;;28.60;94.30;;;;;;5014978;28;19936;-44
2023/08/23 12:06:29;;;;;;;;;;;28.50;94.70;;;;;;5002998;28;19926;-43
2023/08/23 12:08:56;;;;;;;;;;;28.50;94.10;;;;;;5003729;28;20381;-44
2023/08/23 12:11:22;;;;;;;;;;;28.30;94.30;;;;;;5022441;28;19933;-44
2023/08/23 12:13:49;;;;;;;;;;;28.20;94.20;;;;;;5023018;28;19933;-44
2023/08/23 12:16:17;;;;;;;;;;;28.00;93.80;;;;;;5028784;28;19958;-43
2023/08/23 12:18:45;;;;;;;;;;;27.90;93.50;;;;;;5013530;28;19947;-43
2023/08/23 12:21:12;;;;;;;;;;;27.80;94.90;;;;;;4995907;28;19963;-44
2023/08/23 12:23:39;;;;;;;;;;;27.90;94.60;;;;;;5020096;28;20419;-44
2023/08/23 12:26:06;;;;;;;;;;;28.00;95.00;;;;;;5032766;28;19928;-44
2023/08/23 12:28:35;;;;;;;;;;;28.10;95.40;;;;;;5030839;28;21254;-44
2023/08/23 12:31:01;;;;;;;;;;;28.20;95.00;;;;;;5005149;28;19960;-44
2023/08/23 12:33:29;;;;;;;;;;;28.40;94.30;;;;;;5026339;28;19925;-44
2023/08/23 12:35:56;;;;;;;;;;;28.40;93.60;;;;;;5015187;28;19960;-43
2023/08/23 12:38:23;;;;;;;;;;;28.50;94.00;;;;;;5008207;28;19975;-43
2023/08/23 12:40:50;;;;;;;;;;;28.70;94.30;;;;;;5000199;28;20377;-44
2023/08/23 12:43:16;;;;;;;;;;;28.80;92.50;;;;;;5014777;28;19956;-44
2023/08/23 12:45:43;;;;;;;;;;;28.90;92.80;;;;;;5023242;28;20693;-44
2023/08/23 12:48:10;;;;;;;;;;;28.90;92.80;;;;;;5024823;28;19925;-44
2023/08/23 12:50:38;;;;;;;;;;;28.90;93.10;;;;;;5007032;28;19954;-43
2023/08/23 12:53:05;;;;;;;;;;;29.00;92.50;;;;;;5025066;28;19937;-44
2023/08/23 12:55:31;;;;;;;;;;;28.90;91.80;;;;;;5016865;28;19963;-43
2023/08/23 12:57:58;;;;;;;;;;;28.90;92.30;;;;;;5012353;28;19925;-44
2023/08/23 13:00:24;;;;;;;;;;;28.90;92.90;;;;;;5014186;28;20404;-43
2023/08/23 13:02:51;;;;;;;;;;;29.00;91.90;;;;;;4995066;28;19964;-43
2023/08/23 13:05:18;;;;;;;;;;;29.00;92.20;;;;;;4996165;28;19960;-44
2023/08/23 13:07:46;;;;;;;;;;;29.10;92.30;;;;;;5014021;28;19929;-44
2023/08/23 13:10:13;;;;;;;;;;;29.20;92.00;;;;;;5003789;28;19943;-44
2023/08/23 13:12:39;;;;;;;;;;;29.30;92.00;;;;;;5031964;28;19929;-44
2023/08/23 13:15:07;;;;;;;;;;;29.40;91.30;;;;;;5008350;28;19938;-43
2023/08/23 13:17:34;;;;;;;;;;;29.50;91.50;;;;;;5008444;28;20418;-43
2023/08/23 13:20:00;;;;;;;;;;;29.30;90.10;;;;;;4996207;28;19925;-44
2023/08/23 13:22:27;;;;;;;;;;;29.20;91.60;;;;;;5013531;28;20050;-43
2023/08/23 13:24:55;;;;;;;;;;;29.10;91.40;;;;;;5014018;28;19932;-43
2023/08/23 13:27:22;;;;;;;;;;;29.10;90.60;;;;;;5001364;28;20399;-43
2023/08/23 13:29:48;;;;;;;;;;;29.10;90.70;;;;;;5029003;28;19967;-44
2023/08/23 13:32:15;;;;;;;;;;;29.30;91.60;;;;;;5003361;28;19926;-43
2023/08/23 13:34:42;;;;;;;;;;;29.40;91.00;;;;;;5001635;28;20259;-44
2023/08/23 13:37:08;;;;;;;;;;;29.50;90.60;;;;;;5011654;28;20358;-44
2023/08/23 13:39:35;;;;;;;;;;;29.50;87.40;;;;;;5009576;28;19979;-44
2023/08/23 13:42:03;;;;;;;;;;;29.60;90.10;;;;;;5009952;28;19950;-44
2023/08/23 13:44:30;;;;;;;;;;;29.70;88.20;;;;;;5010381;28;19993;-43
2023/08/23 13:46:58;;;;;;;;;;;29.70;88.50;;;;;;5026157;28;19925;-43
2023/08/23 13:49:24;;;;;;;;;;;29.80;86.90;;;;;;5026778;28;19925;-43
2023/08/23 13:51:51;;;;;;;;;;;29.80;86.80;;;;;;5001549;28;19971;-43
2023/08/23 13:54:18;;;;;;;;;;;29.90;86.40;;;;;;5012161;28;20041;-44
2023/08/23 13:56:44;;;;;;;;;;;29.90;83.70;;;;;;5012408;28;20341;-43
2023/08/23 13:59:13;;;;;;;;;;;30.00;85.20;;;;;;4995343;28;19936;-44
2023/08/23 14:01:39;;;;;;;;;;;30.00;84.50;;;;;;4994973;28;20321;-44
2023/08/23 14:04:06;;;;;;;;;;;30.10;84.10;;;;;;5031619;28;19967;-44
2023/08/23 14:06:33;;;;;;;;;;;30.10;83.10;;;;;;5015587;28;20297;-43
2023/08/23 14:08:59;;;;;;;;;;;30.10;84.00;;;;;;5021115;28;20017;-44
2023/08/23 14:11:34;;;;;;;;;;;30.10;80.50;;;;;;5015708;28;20483;-43
2023/08/23 14:14:00;;;;;;;;;;;30.10;83.60;;;;;;5016305;28;19932;-44